createdAt,value
2023-05-08T00:00:10.403Z,14.80
2023-05-08T00:02:42.394Z,14.80
2023-05-08T00:05:12.215Z,14.80
2023-05-08T00:07:40.471Z,14.80
2023-05-08T00:10:10.659Z,14.80
2023-05-08T00:12:39.168Z,14.80
2023-05-08T00:15:08.792Z,14.80
2023-05-08T00:17:37.065Z,14.80
2023-05-08T00:20:05.929Z,14.80
2023-05-08T00:22:35.677Z,14.80
2023-05-08T00:25:05.452Z,14.80
2023-05-08T00:27:34.220Z,14.80
2023-05-08T00:30:02.767Z,14.70
2023-05-08T00:32:31.145Z,14.70
2023-05-08T00:34:59.565Z,14.70
2023-05-08T00:37:27.867Z,14.70
2023-05-08T00:39:57.603Z,14.70
2023-05-08T00:42:26.109Z,14.70
2023-05-08T00:44:54.421Z,14.70
2023-05-08T00:47:23.740Z,14.70
2023-05-08T00:49:52.365Z,14.70
2023-05-08T00:52:21.033Z,14.70
2023-05-08T00:54:50.261Z,14.70
2023-05-08T00:57:20.393Z,14.70
2023-05-08T00:59:50.439Z,14.70
2023-05-08T01:02:19.181Z,14.70
2023-05-08T01:04:49.725Z,14.70
2023-05-08T01:07:19.283Z,14.70
2023-05-08T01:09:47.621Z,14.70
2023-05-08T01:12:22.348Z,14.70
2023-05-08T01:15:06.254Z,14.70
2023-05-08T01:17:44.309Z,14.70
2023-05-08T01:20:24.724Z,14.70
2023-05-08T01:23:35.884Z,14.70
2023-05-08T01:26:22.804Z,14.70
2023-05-08T01:29:27.113Z,14.70
2023-05-08T01:32:16.837Z,14.60
2023-05-08T01:34:52.809Z,14.70
2023-05-08T01:37:31.467Z,14.60
2023-05-08T01:40:12.037Z,14.70
2023-05-08T01:42:50.269Z,14.70
2023-05-08T01:45:22.717Z,14.70
2023-05-08T01:47:58.890Z,14.60
2023-05-08T01:50:34.279Z,14.70
2023-05-08T01:53:09.258Z,14.60
2023-05-08T01:55:40.987Z,14.70
2023-05-08T01:58:11.236Z,14.70
2023-05-08T02:00:42.679Z,14.60
2023-05-08T02:03:15.187Z,14.60
2023-05-08T02:05:45.307Z,14.60
2023-05-08T02:08:16.034Z,14.60
2023-05-08T02:10:46.184Z,14.60
2023-05-08T02:13:19.135Z,14.60
2023-05-08T02:15:50.632Z,14.60
2023-05-08T02:18:22.860Z,14.60
2023-05-08T02:20:53.301Z,14.70
2023-05-08T02:23:23.618Z,14.60
2023-05-08T02:25:52.988Z,14.60
2023-05-08T02:28:21.723Z,14.60
2023-05-08T02:30:51.783Z,14.60
2023-05-08T02:33:22.512Z,14.60
2023-05-08T02:35:52.578Z,14.70
2023-05-08T02:38:22.777Z,14.60
2023-05-08T02:40:57.736Z,14.60
2023-05-08T02:43:26.625Z,14.60
2023-05-08T02:46:04.554Z,14.60
2023-05-08T02:48:39.278Z,14.60
2023-05-08T02:51:19.505Z,14.60
2023-05-08T02:53:53.866Z,14.60
2023-05-08T02:56:32.031Z,14.60
2023-05-08T02:59:18.167Z,14.60
2023-05-08T03:01:53.486Z,14.60
2023-05-08T03:04:31.295Z,14.60
2023-05-08T03:07:00.608Z,14.60
2023-05-08T03:09:38.246Z,14.60
2023-05-08T03:12:12.344Z,14.50
2023-05-08T03:14:56.297Z,14.60
2023-05-08T03:17:27.377Z,14.50
2023-05-08T03:20:01.812Z,14.60
2023-05-08T03:22:33.711Z,14.50
2023-05-08T03:25:06.581Z,14.50
2023-05-08T03:27:38.135Z,14.50
2023-05-08T03:30:09.603Z,14.50
2023-05-08T03:32:41.306Z,14.60
2023-05-08T03:35:12.059Z,14.60
2023-05-08T03:37:42.679Z,14.50
2023-05-08T03:40:12.268Z,14.50
2023-05-08T03:42:41.657Z,14.50
2023-05-08T03:45:11.996Z,14.50
2023-05-08T03:47:42.326Z,14.40
2023-05-08T03:50:12.557Z,14.40
2023-05-08T03:52:41.266Z,14.40
2023-05-08T03:55:11.385Z,14.40
2023-05-08T03:57:46.879Z,14.40
2023-05-08T04:00:23.508Z,14.40
2023-05-08T04:02:58.401Z,14.40
2023-05-08T04:05:37.792Z,14.50
2023-05-08T04:08:22.593Z,14.50
2023-05-08T04:11:00.004Z,14.40
2023-05-08T04:13:32.294Z,14.50
2023-05-08T04:16:08.405Z,14.50
2023-05-08T04:18:40.969Z,14.50
2023-05-08T04:21:13.290Z,14.50
2023-05-08T04:23:45.381Z,14.40
2023-05-08T04:26:17.156Z,14.40
2023-05-08T04:28:47.549Z,14.40
2023-05-08T04:31:18.363Z,14.40
2023-05-08T04:33:47.996Z,14.40
2023-05-08T04:36:17.752Z,14.40
2023-05-08T04:38:47.120Z,14.40
2023-05-08T04:41:16.321Z,14.40
2023-05-08T04:43:45.439Z,14.40
2023-05-08T04:46:13.873Z,14.40
2023-05-08T04:48:42.228Z,14.40
2023-05-08T04:51:10.492Z,14.40
2023-05-08T04:53:40.073Z,14.40
2023-05-08T04:56:08.879Z,14.40
2023-05-08T04:58:37.222Z,14.40
2023-05-08T05:01:07.139Z,14.40
2023-05-08T05:03:35.534Z,14.40
2023-05-08T05:06:04.166Z,14.40
2023-05-08T05:08:32.439Z,14.40
2023-05-08T05:11:02.225Z,14.40
2023-05-08T05:13:32.888Z,14.40
2023-05-08T05:16:01.536Z,14.40
2023-05-08T05:18:30.493Z,14.40
2023-05-08T05:21:00.124Z,14.40
2023-05-08T05:23:30.780Z,14.40
2023-05-08T05:25:59.062Z,14.40
2023-05-08T05:28:28.962Z,14.40
2023-05-08T05:30:57.967Z,14.40
2023-05-08T05:33:26.312Z,14.40
2023-05-08T05:35:54.601Z,14.40
2023-05-08T05:38:23.011Z,14.40
2023-05-08T05:40:51.392Z,14.30
2023-05-08T05:43:19.761Z,14.40
2023-05-08T05:45:49.389Z,14.30
2023-05-08T05:48:17.788Z,14.30
2023-05-08T05:50:46.860Z,14.30
2023-05-08T05:53:15.928Z,14.30
2023-05-08T05:55:44.237Z,14.30
2023-05-08T05:58:12.474Z,14.30
2023-05-08T06:00:40.846Z,14.30
2023-05-08T06:03:11.683Z,14.20
2023-05-08T06:05:40.483Z,14.30
2023-05-08T06:08:09.322Z,14.30
2023-05-08T06:10:37.515Z,14.30
2023-05-08T06:13:05.882Z,14.30
2023-05-08T06:15:36.082Z,14.30
2023-05-08T06:18:05.316Z,14.30
2023-05-08T06:20:37.888Z,14.40
2023-05-08T06:23:06.073Z,14.30
2023-05-08T06:25:34.437Z,14.30
2023-05-08T06:28:03.707Z,14.20
2023-05-08T06:30:32.133Z,14.30
2023-05-08T06:33:00.447Z,14.30
2023-05-08T06:35:28.793Z,14.30
2023-05-08T06:37:58.416Z,14.30
2023-05-08T06:40:26.728Z,14.40
2023-05-08T06:42:55.048Z,14.40
2023-05-08T06:45:23.329Z,14.40
2023-05-08T06:47:51.636Z,14.30
2023-05-08T06:50:20.065Z,14.30
2023-05-08T06:52:48.290Z,14.30
2023-05-08T06:55:18.081Z,14.30
2023-05-08T06:57:46.399Z,14.30
2023-05-08T07:00:16.349Z,14.30
2023-05-08T07:02:44.642Z,14.30
2023-05-08T07:05:13.343Z,14.30
2023-05-08T07:07:42.673Z,14.20
2023-05-08T07:10:11.549Z,14.30
2023-05-08T07:12:41.378Z,14.30
2023-05-08T07:15:23.930Z,14.30
2023-05-08T07:17:54.358Z,14.30
2023-05-08T07:20:24.314Z,14.30
2023-05-08T07:22:52.882Z,14.30
2023-05-08T07:25:21.088Z,14.30
2023-05-08T07:27:50.770Z,14.30
2023-05-08T07:30:19.331Z,14.30
2023-05-08T07:32:47.818Z,14.30
2023-05-08T07:35:16.368Z,14.20
2023-05-08T07:37:44.900Z,14.20
2023-05-08T07:40:13.410Z,14.20
2023-05-08T07:42:42.249Z,14.20
2023-05-08T07:45:14.104Z,14.20
2023-05-08T07:47:50.717Z,14.20
2023-05-08T07:50:20.461Z,14.20
2023-05-08T07:52:50.303Z,14.20
2023-05-08T07:55:19.504Z,14.20
2023-05-08T07:57:48.112Z,14.20
2023-05-08T08:00:18.736Z,14.20
2023-05-08T08:02:47.573Z,14.20
2023-05-08T08:05:16.197Z,14.20
2023-05-08T08:07:44.775Z,14.20
2023-05-08T08:10:13.258Z,14.20
2023-05-08T08:12:42.445Z,14.20
2023-05-08T08:15:12.142Z,14.20
2023-05-08T08:17:42.160Z,14.20
2023-05-08T08:20:11.013Z,14.30
2023-05-08T08:22:39.452Z,14.20
2023-05-08T08:25:08.699Z,14.30
2023-05-08T08:27:37.156Z,14.30
2023-05-08T08:30:16.682Z,14.30
2023-05-08T08:32:48.730Z,14.20
2023-05-08T08:35:17.375Z,14.30
2023-05-08T08:37:46.500Z,14.30
2023-05-08T08:40:14.970Z,14.40
2023-05-08T08:42:43.232Z,14.40
2023-05-08T08:45:12.632Z,14.30
2023-05-08T08:47:45.246Z,14.40
2023-05-08T08:50:15.972Z,14.40
2023-05-08T08:52:50.802Z,14.30
2023-05-08T08:55:21.429Z,14.40
2023-05-08T08:58:08.715Z,14.40
2023-05-08T09:00:38.619Z,14.60
2023-05-08T09:03:07.923Z,14.40
2023-05-08T09:05:38.829Z,14.40
2023-05-08T09:08:07.749Z,14.40
2023-05-08T09:10:37.158Z,14.40
2023-05-08T09:13:05.914Z,14.30
2023-05-08T09:15:34.613Z,14.30
2023-05-08T09:18:03.543Z,14.30
2023-05-08T09:20:32.044Z,14.30
2023-05-08T09:23:03.648Z,14.30
2023-05-08T09:25:44.227Z,14.30
2023-05-08T09:28:19.318Z,14.40
2023-05-08T09:30:51.979Z,14.40
2023-05-08T09:33:21.114Z,14.40
2023-05-08T09:35:49.610Z,14.40
2023-05-08T09:38:36.404Z,14.40
2023-05-08T09:41:09.597Z,14.30
2023-05-08T09:43:38.161Z,14.40
2023-05-08T09:46:23.766Z,14.40
2023-05-08T09:48:53.671Z,14.40
2023-05-08T09:51:22.529Z,14.40
2023-05-08T09:53:54.171Z,14.30
2023-05-08T09:56:35.165Z,14.40
2023-05-08T09:59:06.347Z,14.30
2023-05-08T10:01:36.710Z,14.40
2023-05-08T10:04:06.024Z,14.40
2023-05-08T10:06:36.524Z,14.40
2023-05-08T10:09:10.663Z,14.40
2023-05-08T10:11:40.001Z,14.40
2023-05-08T10:14:08.644Z,14.40
2023-05-08T10:16:42.961Z,14.40
2023-05-08T10:19:15.532Z,14.40
2023-05-08T10:21:47.032Z,14.40
2023-05-08T10:24:19.118Z,14.40
2023-05-08T10:27:07.051Z,14.40
2023-05-08T10:29:47.013Z,14.40
2023-05-08T10:32:20.165Z,14.40
2023-05-08T10:34:51.169Z,14.40
2023-05-08T10:37:19.807Z,14.40
2023-05-08T10:39:50.226Z,14.40
2023-05-08T10:42:18.637Z,14.40
2023-05-08T10:44:47.721Z,14.40
2023-05-08T10:47:24.505Z,14.40
2023-05-08T10:50:01.687Z,14.30
2023-05-08T10:52:37.283Z,14.40
2023-05-08T10:55:21.306Z,14.40
2023-05-08T10:58:12.255Z,14.40
2023-05-08T11:01:12.452Z,14.40
2023-05-08T11:03:43.398Z,14.40
2023-05-08T11:06:12.552Z,14.40
2023-05-08T11:08:54.749Z,14.30
2023-05-08T11:11:31.551Z,14.40
2023-05-08T11:14:11.901Z,14.40
2023-05-08T11:17:06.541Z,14.40
2023-05-08T11:19:35.402Z,14.40
2023-05-08T11:22:32.770Z,14.40
2023-05-08T11:25:06.754Z,14.40
2023-05-08T11:28:14.218Z,14.40
2023-05-08T11:30:46.025Z,14.40
2023-05-08T11:33:18.905Z,14.40
2023-05-08T11:35:53.833Z,14.40
2023-05-08T11:38:27.860Z,14.40
2023-05-08T11:40:59.305Z,14.40
2023-05-08T11:43:46.883Z,14.40
2023-05-08T11:46:18.359Z,14.40
2023-05-08T11:48:46.957Z,14.40
2023-05-08T11:51:18.112Z,14.40
2023-05-08T11:53:47.047Z,14.40
2023-05-08T11:56:15.488Z,14.40
2023-05-08T11:58:44.167Z,14.40
2023-05-08T12:01:12.511Z,14.40
2023-05-08T12:03:42.430Z,14.40
2023-05-08T12:06:10.994Z,14.40
2023-05-08T12:08:40.518Z,14.40
2023-05-08T12:11:08.837Z,14.40
2023-05-08T12:13:37.278Z,14.50
2023-05-08T12:16:05.827Z,14.50
2023-05-08T12:18:34.257Z,14.40
2023-05-08T12:21:03.900Z,14.40
2023-05-08T12:23:32.153Z,14.50
2023-05-08T12:26:01.533Z,14.50
2023-05-08T12:28:32.291Z,14.50
2023-05-08T12:31:00.701Z,14.40
2023-05-08T12:33:29.162Z,14.50
2023-05-08T12:35:57.718Z,14.40
2023-05-08T12:38:29.142Z,14.40
2023-05-08T12:40:57.529Z,14.40
2023-05-08T12:43:33.651Z,14.40
2023-05-08T12:46:02.964Z,14.40
2023-05-08T12:48:31.923Z,14.40
2023-05-08T12:51:04.969Z,14.30
2023-05-08T12:53:35.666Z,14.40
2023-05-08T12:56:06.175Z,14.40
2023-05-08T12:58:35.789Z,14.30
2023-05-08T13:01:13.192Z,14.40
2023-05-08T13:03:42.676Z,14.40
2023-05-08T13:06:21.268Z,14.40
2023-05-08T13:08:55.167Z,14.40
2023-05-08T13:11:31.454Z,14.40
2023-05-08T13:13:59.752Z,14.40
2023-05-08T13:16:28.110Z,14.40
2023-05-08T13:18:56.550Z,14.40
2023-05-08T13:21:27.297Z,14.40
2023-05-08T13:23:57.733Z,14.40
2023-05-08T13:26:26.341Z,14.40
2023-05-08T13:28:56.479Z,14.40
2023-05-08T13:31:25.195Z,14.40
2023-05-08T13:33:53.459Z,14.40
2023-05-08T13:36:21.877Z,14.40
2023-05-08T13:38:51.403Z,14.50
2023-05-08T13:41:21.340Z,14.40
2023-05-08T13:43:49.708Z,14.40
2023-05-08T13:46:17.974Z,14.40
2023-05-08T13:48:46.298Z,14.40
2023-05-08T13:51:14.525Z,14.50
2023-05-08T13:53:42.765Z,14.40
2023-05-08T13:56:11.244Z,14.40
2023-05-08T13:58:41.033Z,14.40
2023-05-08T14:01:25.051Z,14.40
2023-05-08T14:03:55.424Z,14.40
2023-05-08T14:06:23.986Z,14.40
2023-05-08T14:08:55.493Z,14.40
2023-05-08T14:11:25.673Z,14.40
2023-05-08T14:13:55.749Z,14.40
2023-05-08T14:16:24.079Z,14.40
2023-05-08T14:18:52.384Z,14.40
2023-05-08T14:21:20.629Z,14.40
2023-05-08T14:23:48.826Z,14.40
2023-05-08T14:26:17.235Z,14.30
2023-05-08T14:28:45.513Z,14.40
2023-05-08T14:31:15.252Z,14.40
2023-05-08T14:33:43.671Z,14.40
2023-05-08T14:36:12.110Z,14.40
2023-05-08T14:38:40.327Z,14.40
2023-05-08T14:41:08.534Z,14.40
2023-05-08T14:43:36.818Z,14.40
2023-05-08T14:46:05.178Z,14.40
2023-05-08T14:48:35.034Z,14.40
2023-05-08T14:51:03.319Z,14.30
2023-05-08T14:53:31.661Z,14.30
2023-05-08T14:56:01.438Z,14.40
2023-05-08T14:58:30.006Z,14.30
2023-05-08T15:00:58.206Z,14.40
2023-05-08T15:03:26.997Z,14.40
2023-05-08T15:05:57.283Z,14.40
2023-05-08T15:08:25.629Z,14.40
2023-05-08T15:10:53.825Z,14.40
2023-05-08T15:13:22.112Z,14.40
2023-05-08T15:15:50.375Z,14.40
2023-05-08T15:18:18.599Z,14.40
2023-05-08T15:20:46.901Z,14.40
2023-05-08T15:23:16.579Z,14.40
2023-05-08T15:25:44.894Z,14.40
2023-05-08T15:28:13.073Z,14.40
2023-05-08T15:30:41.276Z,14.40
2023-05-08T15:33:09.566Z,14.40
2023-05-08T15:35:37.956Z,14.50
2023-05-08T15:38:07.581Z,14.40
2023-05-08T15:40:37.193Z,14.40
2023-05-08T15:43:05.491Z,14.40
2023-05-08T15:45:34.032Z,14.40
2023-05-08T15:48:02.373Z,14.40
2023-05-08T15:50:30.834Z,14.40
2023-05-08T15:52:59.199Z,14.40
2023-05-08T15:55:27.374Z,14.40
2023-05-08T15:57:57.145Z,14.40
2023-05-08T16:00:30.120Z,14.40
2023-05-08T16:03:05.521Z,14.40
2023-05-08T16:05:33.753Z,14.50
2023-05-08T16:08:02.138Z,14.50
2023-05-08T16:10:30.421Z,14.50
2023-05-08T16:13:00.026Z,14.50
2023-05-08T16:15:28.758Z,14.50
2023-05-08T16:17:57.002Z,14.50
2023-05-08T16:20:25.500Z,14.50
2023-05-08T16:22:55.518Z,14.50
2023-05-08T16:25:24.143Z,14.50
2023-05-08T16:27:52.649Z,14.50
2023-05-08T16:30:22.422Z,14.50
2023-05-08T16:32:50.787Z,14.50
2023-05-08T16:35:19.586Z,14.50
2023-05-08T16:37:48.590Z,14.60
2023-05-08T16:40:17.834Z,14.60
2023-05-08T16:42:46.126Z,14.60
2023-05-08T16:45:14.718Z,14.60
2023-05-08T16:47:44.685Z,14.60
2023-05-08T16:50:13.294Z,14.60
2023-05-08T16:52:41.635Z,14.60
2023-05-08T16:55:11.146Z,14.60
2023-05-08T16:57:39.558Z,14.60
2023-05-08T17:00:09.049Z,14.70
2023-05-08T17:02:37.491Z,14.60
2023-05-08T17:05:08.095Z,14.70
2023-05-08T17:07:36.373Z,14.70
2023-05-08T17:10:04.884Z,14.70
2023-05-08T17:12:33.169Z,14.70
2023-05-08T17:15:01.440Z,14.60
2023-05-08T17:17:29.908Z,14.70
2023-05-08T17:19:58.169Z,14.70
2023-05-08T17:22:28.599Z,14.70
2023-05-08T17:24:56.950Z,14.80
2023-05-08T17:27:25.291Z,14.90
2023-05-08T17:29:53.690Z,14.80
2023-05-08T17:32:22.039Z,14.90
2023-05-08T17:34:50.556Z,14.80
2023-05-08T17:37:18.798Z,14.90
2023-05-08T17:39:48.531Z,14.90
2023-05-08T17:42:17.075Z,14.90
2023-05-08T17:44:45.370Z,14.90
2023-05-08T17:47:13.738Z,14.90
2023-05-08T17:49:42.238Z,15.00
2023-05-08T17:52:10.539Z,15.00
2023-05-08T17:54:38.849Z,15.00
2023-05-08T17:57:08.512Z,15.00
2023-05-08T17:59:36.761Z,15.00
2023-05-08T18:02:05.751Z,15.00
2023-05-08T18:04:34.184Z,15.00
2023-05-08T18:07:04.080Z,14.90
2023-05-08T18:09:32.355Z,14.90
2023-05-08T18:12:02.649Z,14.90
2023-05-08T18:14:32.798Z,14.90
2023-05-08T18:17:01.354Z,14.80
2023-05-08T18:19:29.840Z,14.80
2023-05-08T18:21:58.139Z,14.80
2023-05-08T18:24:26.581Z,14.80
2023-05-08T18:26:54.953Z,14.80
2023-05-08T18:29:23.200Z,14.80
2023-05-08T18:31:52.937Z,14.80
2023-05-08T18:34:21.320Z,14.80
2023-05-08T18:36:50.484Z,14.80
2023-05-08T18:39:18.921Z,14.80
2023-05-08T18:41:47.137Z,14.80
2023-05-08T18:44:15.661Z,14.80
2023-05-08T18:46:43.975Z,14.80
2023-05-08T18:49:13.748Z,14.80
2023-05-08T18:51:42.021Z,14.80
2023-05-08T18:54:10.362Z,14.70
2023-05-08T18:56:38.527Z,14.70
2023-05-08T18:59:06.759Z,14.80
2023-05-08T19:01:35.332Z,14.70
2023-05-08T19:04:04.318Z,14.80
2023-05-08T19:06:34.268Z,14.70
2023-05-08T19:09:02.519Z,14.70
2023-05-08T19:11:30.791Z,14.70
2023-05-08T19:13:59.064Z,14.70
2023-05-08T19:16:27.564Z,14.70
2023-05-08T19:18:55.917Z,14.70
2023-05-08T19:21:24.236Z,14.70
2023-05-08T19:23:53.886Z,14.70
2023-05-08T19:26:22.900Z,14.70
2023-05-08T19:28:51.138Z,14.70
2023-05-08T19:31:19.455Z,14.70
2023-05-08T19:33:49.342Z,14.70
2023-05-08T19:36:18.406Z,14.70
2023-05-08T19:38:46.647Z,14.70
2023-05-08T19:41:17.833Z,14.70
2023-05-08T19:43:46.152Z,14.70
2023-05-08T19:46:14.392Z,14.70
2023-05-08T19:48:42.822Z,14.70
2023-05-08T19:51:11.659Z,14.70
2023-05-08T19:53:40.731Z,14.70
2023-05-08T19:56:09.344Z,14.60
2023-05-08T19:58:39.059Z,14.80
2023-05-08T20:01:07.405Z,14.90
2023-05-08T20:03:35.771Z,14.90
2023-05-08T20:06:04.321Z,15.00
2023-05-08T20:08:32.522Z,15.00
2023-05-08T20:11:04.204Z,15.00
2023-05-08T20:13:32.315Z,15.00
2023-05-08T20:16:01.973Z,15.00
2023-05-08T20:18:30.271Z,15.00
2023-05-08T20:20:58.419Z,15.00
2023-05-08T20:23:26.678Z,15.00
2023-05-08T20:25:55.301Z,15.00
2023-05-08T20:28:26.099Z,15.00
2023-05-08T20:30:54.635Z,15.00
2023-05-08T20:33:24.561Z,15.00
2023-05-08T20:35:54.184Z,15.00
2023-05-08T20:38:22.550Z,15.10
2023-05-08T20:40:51.107Z,15.10
2023-05-08T20:43:19.541Z,15.00
2023-05-08T20:45:49.274Z,15.00
2023-05-08T20:48:17.625Z,15.10
2023-05-08T20:50:49.060Z,15.00
2023-05-08T20:53:17.486Z,15.00
2023-05-08T20:55:45.735Z,14.90
2023-05-08T20:58:14.743Z,14.90
2023-05-08T21:00:42.929Z,14.80
2023-05-08T21:03:11.254Z,14.90
2023-05-08T21:05:39.602Z,14.80
2023-05-08T21:08:09.200Z,14.90
2023-05-08T21:10:37.692Z,14.80
2023-05-08T21:13:06.449Z,14.80
2023-05-08T21:15:35.114Z,14.80
2023-05-08T21:18:03.468Z,14.70
2023-05-08T21:20:34.166Z,14.70
2023-05-08T21:23:02.550Z,14.70
2023-05-08T21:25:32.334Z,14.70
2023-05-08T21:28:00.659Z,14.60
2023-05-08T21:30:29.005Z,14.60
2023-05-08T21:32:57.359Z,14.60
2023-05-08T21:35:25.681Z,14.70
2023-05-08T21:37:54.756Z,14.70
2023-05-08T21:40:23.329Z,14.70
2023-05-08T21:42:53.051Z,14.60
2023-05-08T21:45:21.459Z,14.70
2023-05-08T21:47:49.836Z,14.60
2023-05-08T21:50:18.529Z,14.60
2023-05-08T21:52:46.906Z,14.60
2023-05-08T21:55:15.416Z,14.60
2023-05-08T21:57:43.825Z,14.60
2023-05-08T22:00:15.088Z,14.60
2023-05-08T22:02:52.571Z,14.60
2023-05-08T22:05:21.253Z,14.60
2023-05-08T22:07:49.528Z,14.60
2023-05-08T22:10:17.994Z,14.60
2023-05-08T22:12:46.248Z,14.50
2023-05-08T22:15:28.506Z,14.50
2023-05-08T22:17:58.380Z,14.50
2023-05-08T22:20:26.867Z,14.50
2023-05-08T22:22:55.117Z,14.50
2023-05-08T22:25:23.423Z,14.50
2023-05-08T22:27:51.669Z,14.50
2023-05-08T22:30:21.545Z,14.50
2023-05-08T22:32:55.320Z,14.50
2023-05-08T22:35:24.528Z,14.50
2023-05-08T22:37:53.511Z,14.50
2023-05-08T22:40:22.261Z,14.50
2023-05-08T22:42:53.503Z,14.50
2023-05-08T22:45:24.238Z,14.50
2023-05-08T22:47:52.586Z,14.50
2023-05-08T22:50:21.194Z,14.50
2023-05-08T22:52:49.465Z,14.50
2023-05-08T22:55:17.944Z,14.40
2023-05-08T22:57:46.381Z,14.40
2023-05-08T23:00:16.261Z,14.40
2023-05-08T23:02:45.974Z,14.40
2023-05-08T23:05:14.675Z,14.50
2023-05-08T23:07:43.238Z,14.40
2023-05-08T23:10:12.203Z,14.40
2023-05-08T23:12:40.518Z,14.40
2023-05-08T23:15:09.839Z,14.50
2023-05-08T23:17:38.267Z,14.50
2023-05-08T23:20:09.426Z,14.40
2023-05-08T23:22:37.691Z,14.40
2023-05-08T23:25:06.791Z,14.40
2023-05-08T23:27:35.053Z,14.40
2023-05-08T23:30:03.502Z,14.40
2023-05-08T23:32:31.744Z,14.40
2023-05-08T23:35:00.077Z,14.50
2023-05-08T23:37:29.704Z,14.40
2023-05-08T23:39:58.703Z,14.40
2023-05-08T23:42:27.290Z,14.40
2023-05-08T23:44:55.623Z,14.40
2023-05-08T23:47:24.087Z,14.30
2023-05-08T23:49:52.349Z,14.40
2023-05-08T23:52:21.736Z,14.40
2023-05-08T23:54:51.400Z,14.40
2023-05-08T23:57:19.631Z,14.40
2023-05-08T23:59:47.884Z,14.30
